Terminal Aerodrome Forecast
Issued by NWS

Home | Current Version | Previous Version | Graphics & Text | Print | Product List | Glossary On
Versions: 1 2 3 4 5 6 7 8 9 10 11 12 13 14 15 16
000
FTUS43 KBIS 141906 AAA
TAFDIK
TAF AMD
KDIK 141906Z 1419/1518 35015KT P6SM BKN015
     FM142100 34015KT P6SM SCT020
     FM142300 31011KT P6SM FEW030
     FM150200 24006KT P6SM SKC
     FM150700 23009KT P6SM FEW030 FEW250 WS020/27030KT
     FM151600 28018G24KT P6SM FEW250=

USA.gov is the U.S. government's official web portal to all federal, state and local government web resources and services.